Time;durP1;ratioP1;P1;durP2;ratioP2;P2;SDS_P1;SDS_P2;PMS_P1;PMS_P2;Temp;Humidity;BMP_temperature;BMP_pressure;BME280_temperature;BME280_humidity;BME280_pressure;Samples;Min_cycle;Max_cycle;Signal;HPM_P1;HPM_P2
2022/07/06 00:02:16;;;;;;;;;;;;;;;27.59;41.03;98190.72;5121373;28;19923;-62
2022/07/06 00:04:44;;;;;;;;;;;;;;;27.60;41.07;98208.78;5121383;28;19931;-63
2022/07/06 00:07:10;;;;;;;;;;;;;;;27.57;41.23;98205.97;5124610;28;19927;-63
2022/07/06 00:09:37;;;;;;;;;;;;;;;27.53;41.11;98200.44;5124858;28;20143;-62
2022/07/06 00:12:03;;;;;;;;;;;;;;;27.45;41.32;98200.69;5121940;28;19932;-62
2022/07/06 00:14:30;;;;;;;;;;;;;;;27.42;41.20;98196.66;5121257;28;19924;-62
2022/07/06 00:16:56;;;;;;;;;;;;;;;27.42;41.43;98201.38;5123059;28;20023;-63
2022/07/06 00:19:22;;;;;;;;;;;;;;;27.44;41.45;98201.84;5124878;28;19959;-62
2022/07/06 00:21:50;;;;;;;;;;;;;;;27.41;41.21;98189.63;5135032;27;19932;-62
2022/07/06 00:24:17;;;;;;;;;;;;;;;27.41;41.29;98189.63;5121276;28;19924;-61
2022/07/06 00:26:44;;;;;;;;;;;;;;;27.34;41.60;98192.22;5121310;28;20050;-62
2022/07/06 00:29:10;;;;;;;;;;;;;;;27.30;41.83;98199.59;5124322;28;19962;-62
2022/07/06 00:31:37;;;;;;;;;;;;;;;27.26;41.72;98193.28;5124518;28;20031;-61
2022/07/06 00:34:03;;;;;;;;;;;;;;;27.24;41.92;98198.31;5121592;28;19932;-62
2022/07/06 00:36:29;;;;;;;;;;;;;;;27.22;41.74;98203.38;5120692;28;19954;-62
2022/07/06 00:38:57;;;;;;;;;;;;;;;27.20;41.86;98200.22;5122521;28;19923;-63
2022/07/06 00:41:23;;;;;;;;;;;;;;;27.16;41.96;98196.63;5123924;28;20014;-62
2022/07/06 00:43:50;;;;;;;;;;;;;;;27.18;42.11;98203.31;5122232;28;19931;-63
2022/07/06 00:46:17;;;;;;;;;;;;;;;27.07;42.07;98202.34;5120320;28;19924;-63
2022/07/06 00:48:43;;;;;;;;;;;;;;;27.10;42.30;98200.81;5120276;28;19932;-64
2022/07/06 00:51:10;;;;;;;;;;;;;;;27.13;41.98;98200.09;5135050;27;19931;-63
2022/07/06 00:53:37;;;;;;;;;;;;;;;27.07;42.07;98196.84;5123930;28;19935;-62
2022/07/06 00:56:05;;;;;;;;;;;;;;;27.00;42.23;98198.66;5120784;28;19928;-63
2022/07/06 00:58:32;;;;;;;;;;;;;;;27.06;42.38;98199.94;5120174;28;19924;-62
2022/07/06 01:00:58;;;;;;;;;;;;;;;26.72;43.42;98196.94;5122143;28;20552;-62
2022/07/06 01:03:24;;;;;;;;;;;;;;;26.63;43.73;98203.78;5123502;28;19923;-62
2022/07/06 01:05:51;;;;;;;;;;;;;;;26.24;44.72;98198.28;5122293;28;19924;-63
2022/07/06 01:08:17;;;;;;;;;;;;;;;26.44;44.38;98196.38;5119827;28;19920;-62
2022/07/06 01:10:44;;;;;;;;;;;;;;;26.27;44.77;98205.00;5119892;28;19991;-62
2022/07/06 01:13:12;;;;;;;;;;;;;;;26.28;44.74;98201.09;5123137;28;19950;-63
2022/07/06 01:15:38;;;;;;;;;;;;;;;26.01;45.39;98194.63;5123236;28;19926;-62
2022/07/06 01:18:04;;;;;;;;;;;;;;;25.93;45.67;98192.09;5120282;28;19925;-62
2022/07/06 01:20:32;;;;;;;;;;;;;;;25.88;45.71;98186.88;5127622;27;19924;-62
2022/07/06 01:23:00;;;;;;;;;;;;;;;25.91;45.77;98184.22;5124713;27;19924;-63
2022/07/06 01:25:26;;;;;;;;;;;;;;;26.06;45.63;98182.59;5123263;28;19923;-63
2022/07/06 01:27:53;;;;;;;;;;;;;;;26.01;45.91;98191.09;5121867;28;19927;-63
2022/07/06 01:30:20;;;;;;;;;;;;;;;25.94;45.88;98182.72;5119558;28;19963;-62
2022/07/06 01:32:46;;;;;;;;;;;;;;;26.19;45.85;98189.56;5119885;28;19928;-62
2022/07/06 01:35:14;;;;;;;;;;;;;;;26.06;45.60;98186.13;5122913;28;19923;-63
2022/07/06 01:37:43;;;;;;;;;;;;;;;25.93;45.99;98186.63;5123139;28;19923;-62
2022/07/06 01:40:10;;;;;;;;;;;;;;;26.28;45.50;98181.94;5135411;27;19959;-62
2022/07/06 01:42:37;;;;;;;;;;;;;;;26.46;45.30;98174.88;5119303;28;19924;-62
2022/07/06 01:45:04;;;;;;;;;;;;;;;26.58;45.05;98184.91;5122371;28;20372;-63
2022/07/06 01:47:30;;;;;;;;;;;;;;;26.59;45.03;98176.31;5122798;28;19928;-63
2022/07/06 01:49:58;;;;;;;;;;;;;;;26.69;45.04;98180.44;5121078;28;19920;-62
2022/07/06 01:52:25;;;;;;;;;;;;;;;26.69;44.77;98180.44;5130544;27;19955;-62
2022/07/06 01:54:52;;;;;;;;;;;;;;;26.62;45.00;98181.06;5120465;28;19924;-61
2022/07/06 01:57:19;;;;;;;;;;;;;;;26.67;45.07;98180.81;5122715;28;19963;-62
2022/07/06 01:59:45;;;;;;;;;;;;;;;26.19;46.08;98184.09;5122484;28;19923;-62
2022/07/06 02:02:11;;;;;;;;;;;;;;;26.36;45.70;98177.41;5119155;28;19935;-63
2022/07/06 02:04:38;;;;;;;;;;;;;;;26.47;45.51;98184.69;5119038;28;19920;-62
2022/07/06 02:07:04;;;;;;;;;;;;;;;26.47;45.68;98181.94;5121719;28;19934;-62
2022/07/06 02:09:31;;;;;;;;;;;;;;;26.49;45.83;98181.59;5122331;28;19935;-63
2022/07/06 02:11:58;;;;;;;;;;;;;;;26.12;46.22;98181.19;5120498;28;19931;-63
2022/07/06 02:14:25;;;;;;;;;;;;;;;26.14;46.42;98187.88;5118917;28;19963;-62
2022/07/06 02:16:51;;;;;;;;;;;;;;;26.15;46.44;98191.44;5119875;28;19931;-61
2022/07/06 02:19:17;;;;;;;;;;;;;;;26.31;46.26;98189.44;5122272;28;19920;-62
2022/07/06 02:21:44;;;;;;;;;;;;;;;26.21;46.48;98187.28;5133338;27;19967;-63
2022/07/06 02:24:10;;;;;;;;;;;;;;;26.20;46.62;98189.22;5100641;28;20027;-63
2022/07/06 02:26:36;;;;;;;;;;;;;;;26.24;46.53;98184.59;5118626;28;19931;-63
2022/07/06 02:29:04;;;;;;;;;;;;;;;26.25;46.52;98188.94;5121515;28;19947;-62
2022/07/06 02:31:30;;;;;;;;;;;;;;;26.29;46.46;98183.53;5122093;28;19931;-63
2022/07/06 02:33:57;;;;;;;;;;;;;;;26.16;46.77;98190.28;5120172;28;19924;-63
2022/07/06 02:36:23;;;;;;;;;;;;;;;25.99;47.29;98183.25;5118487;28;19955;-62
2022/07/06 02:38:49;;;;;;;;;;;;;;;26.20;46.78;98191.16;5119376;28;20332;-61
2022/07/06 02:41:16;;;;;;;;;;;;;;;26.18;46.83;98190.75;5121843;28;19974;-62
2022/07/06 02:43:42;;;;;;;;;;;;;;;26.21;46.89;98187.28;5121985;28;19991;-63
2022/07/06 02:46:10;;;;;;;;;;;;;;;26.23;46.95;98185.78;5109964;28;19924;-61
2022/07/06 02:48:36;;;;;;;;;;;;;;;26.17;47.01;98191.88;5110112;28;19935;-62
2022/07/06 02:51:02;;;;;;;;;;;;;;;26.22;47.02;98195.13;5124030;28;19920;-62
2022/07/06 02:53:29;;;;;;;;;;;;;;;26.18;46.86;98198.94;5122060;28;20298;-62
2022/07/06 02:55:55;;;;;;;;;;;;;;;26.17;46.58;98202.81;5120241;28;19924;-62
2022/07/06 02:58:21;;;;;;;;;;;;;;;26.14;46.58;98204.31;5118341;28;19924;-63
2022/07/06 03:00:48;;;;;;;;;;;;;;;26.07;46.49;98208.81;5118933;28;19935;-63
2022/07/06 03:03:16;;;;;;;;;;;;;;;26.06;46.25;98212.69;5122041;28;19924;-63
2022/07/06 03:05:42;;;;;;;;;;;;;;;25.97;46.21;98212.91;5122262;28;19924;-62
2022/07/06 03:08:08;;;;;;;;;;;;;;;26.07;46.05;98225.25;5113700;28;19927;-62
2022/07/06 03:10:35;;;;;;;;;;;;;;;26.04;45.97;98223.22;5113801;28;19966;-62
2022/07/06 03:13:01;;;;;;;;;;;;;;;26.09;46.07;98233.91;5113576;28;19924;-63
2022/07/06 03:15:27;;;;;;;;;;;;;;;25.80;46.67;98246.13;5113353;28;20020;-62
2022/07/06 03:17:54;;;;;;;;;;;;;;;25.70;46.73;98250.19;5113494;28;19928;-62
2022/07/06 03:20:21;;;;;;;;;;;;;;;25.78;46.71;98251.94;5118107;27;19987;-63
2022/07/06 03:22:48;;;;;;;;;;;;;;;25.90;46.57;98250.28;5128144;27;19955;-63
2022/07/06 03:25:14;;;;;;;;;;;;;;;25.84;46.73;98251.69;5125425;28;19959;-63
2022/07/06 03:27:40;;;;;;;;;;;;;;;25.88;46.79;98249.81;5125461;28;19924;-62
2022/07/06 03:30:07;;;;;;;;;;;;;;;25.86;46.66;98243.91;5121823;28;19964;-62
2022/07/06 03:32:33;;;;;;;;;;;;;;;25.76;46.66;98250.72;5121820;28;19924;-62
2022/07/06 03:35:00;;;;;;;;;;;;;;;25.79;46.70;98255.47;5123194;28;19987;-63
2022/07/06 03:37:27;;;;;;;;;;;;;;;25.84;46.77;98248.94;5127416;28;19924;-62
2022/07/06 03:39:54;;;;;;;;;;;;;;;25.69;46.86;98250.53;5123105;28;19927;-62
2022/07/06 03:42:20;;;;;;;;;;;;;;;25.76;46.81;98254.25;5124994;28;19966;-61
2022/07/06 03:44:46;;;;;;;;;;;;;;;25.31;47.49;98253.84;5124456;28;19924;-62
2022/07/06 03:47:13;;;;;;;;;;;;;;;25.05;48.51;98257.06;5121346;28;20007;-62
2022/07/06 03:49:39;;;;;;;;;;;;;;;25.40;47.82;98251.75;5121449;28;20174;-62
2022/07/06 03:52:06;;;;;;;;;;;;;;;25.24;48.09;98259.13;5135460;27;19951;-63
2022/07/06 03:54:33;;;;;;;;;;;;;;;24.67;48.69;98256.72;5121464;28;19935;-62
2022/07/06 03:57:00;;;;;;;;;;;;;;;25.08;48.75;98261.03;5123612;28;20065;-62
2022/07/06 03:59:26;;;;;;;;;;;;;;;25.25;48.44;98266.19;5124797;28;20023;-62
2022/07/06 04:01:53;;;;;;;;;;;;;;;25.39;47.93;98255.63;5123209;28;19920;-62
2022/07/06 04:04:19;;;;;;;;;;;;;;;24.84;48.64;98256.47;5121170;28;19924;-62
2022/07/06 04:06:45;;;;;;;;;;;;;;;24.65;48.80;98268.00;5121273;28;19935;-62
2022/07/06 04:09:12;;;;;;;;;;;;;;;24.64;48.44;98263.66;5124688;28;19966;-62
2022/07/06 04:11:39;;;;;;;;;;;;;;;24.84;48.09;98272.06;5124619;28;19930;-66
2022/07/06 04:14:06;;;;;;;;;;;;;;;24.76;48.21;98273.00;5121485;28;19924;-63
2022/07/06 04:16:32;;;;;;;;;;;;;;;24.88;48.21;98262.81;5121107;28;19931;-62
2022/07/06 04:18:58;;;;;;;;;;;;;;;24.88;48.22;98267.50;5121919;28;19935;-63
2022/07/06 04:21:25;;;;;;;;;;;;;;;24.80;48.49;98276.59;5135611;27;19928;-62
2022/07/06 04:23:51;;;;;;;;;;;;;;;24.86;48.19;98275.22;5123117;28;20022;-62
2022/07/06 04:26:17;;;;;;;;;;;;;;;24.54;48.66;98275.06;5120717;28;19924;-62
2022/07/06 04:28:45;;;;;;;;;;;;;;;24.68;48.79;98278.22;5120760;28;19932;-61
2022/07/06 04:31:14;;;;;;;;;;;;;;;24.88;48.25;98279.19;5124061;28;19924;-62
2022/07/06 04:33:41;;;;;;;;;;;;;;;25.04;48.10;98279.25;5124294;28;19927;-62
2022/07/06 04:36:07;;;;;;;;;;;;;;;25.23;47.61;98287.59;5120608;28;19951;-62
2022/07/06 04:38:34;;;;;;;;;;;;;;;25.27;47.54;98287.69;5120456;28;19959;-62
2022/07/06 04:41:00;;;;;;;;;;;;;;;25.02;48.10;98282.34;5123039;28;19928;-62
2022/07/06 04:43:26;;;;;;;;;;;;;;;25.13;47.95;98282.63;5123977;27;19924;-63
2022/07/06 04:45:54;;;;;;;;;;;;;;;25.02;48.31;98284.28;5122711;28;19919;-62
2022/07/06 04:48:20;;;;;;;;;;;;;;;25.27;47.97;98291.22;5120410;28;19935;-61
2022/07/06 04:50:47;;;;;;;;;;;;;;;25.17;48.11;98292.53;5132234;27;19935;-61
2022/07/06 04:53:13;;;;;;;;;;;;;;;25.27;48.26;98293.16;5123486;28;19928;-63
2022/07/06 04:55:40;;;;;;;;;;;;;;;25.27;48.20;98302.16;5123551;28;19924;-62
2022/07/06 04:58:06;;;;;;;;;;;;;;;25.30;47.86;98306.94;5120264;28;20244;-62
2022/07/06 05:00:32;;;;;;;;;;;;;;;25.09;48.40;98298.94;5119595;28;19927;-63
2022/07/06 05:03:00;;;;;;;;;;;;;;;25.18;48.40;98298.78;5121658;28;19931;-62
2022/07/06 05:05:26;;;;;;;;;;;;;;;25.21;48.17;98295.38;5123014;28;19924;-63
2022/07/06 05:07:53;;;;;;;;;;;;;;;25.29;48.00;98299.88;5121657;28;19924;-62
2022/07/06 05:10:19;;;;;;;;;;;;;;;25.20;48.28;98312.91;5119676;28;19955;-62
2022/07/06 05:12:45;;;;;;;;;;;;;;;25.15;48.21;98308.50;5119954;28;19920;-62
2022/07/06 05:15:12;;;;;;;;;;;;;;;24.80;48.78;98314.84;5123187;28;19930;-62
2022/07/06 05:17:38;;;;;;;;;;;;;;;24.96;48.68;98321.19;5123124;28;19973;-62
2022/07/06 05:20:07;;;;;;;;;;;;;;;25.22;48.43;98316.88;5120596;27;19924;-62
2022/07/06 05:22:33;;;;;;;;;;;;;;;25.29;48.18;98324.47;5129707;27;19935;-63
2022/07/06 05:25:00;;;;;;;;;;;;;;;25.10;48.49;98319.66;5121937;28;19966;-63
2022/07/06 05:27:26;;;;;;;;;;;;;;;24.82;49.07;98324.31;5122964;28;19938;-61
2022/07/06 05:29:52;;;;;;;;;;;;;;;24.52;49.63;98321.06;5121387;28;19941;-63
2022/07/06 05:32:19;;;;;;;;;;;;;;;24.63;49.39;98333.09;5119406;28;19995;-64
2022/07/06 05:34:45;;;;;;;;;;;;;;;24.22;50.23;98327.13;5119470;28;19950;-63
2022/07/06 05:37:12;;;;;;;;;;;;;;;24.45;49.99;98339.94;5122637;28;19951;-63
2022/07/06 05:39:43;;;;;;;;;;;;;;;24.31;50.05;98330.53;5122687;28;19990;-64
2022/07/06 05:42:09;;;;;;;;;;;;;;;24.04;50.65;98326.53;5119409;28;19950;-62
2022/07/06 05:44:36;;;;;;;;;;;;;;;23.90;50.82;98337.75;5119111;28;19955;-62
2022/07/06 05:52:28;;;;;;;;;;;;;;;23.85;51.38;98337.19;5130282;27;19939;-63
2022/07/06 05:54:54;;;;;;;;;;;;;;;23.81;51.44;98337.06;5120298;28;19932;-62
2022/07/06 05:57:20;;;;;;;;;;;;;;;24.66;50.44;98339.81;5122195;28;19990;-62
2022/07/06 05:59:47;;;;;;;;;;;;;;;24.91;49.62;98335.91;5121745;28;20586;-62
2022/07/06 06:02:13;;;;;;;;;;;;;;;25.20;49.26;98335.56;5118694;28;20011;-62
2022/07/06 06:04:40;;;;;;;;;;;;;;;25.61;48.70;98330.84;5118874;28;19931;-62
2022/07/06 06:07:06;;;;;;;;;;;;;;;25.59;48.03;98331.16;5121639;28;19987;-62
2022/07/06 06:09:34;;;;;;;;;;;;;;;25.81;48.14;98324.31;5122148;28;19979;-63
2022/07/06 06:12:00;;;;;;;;;;;;;;;25.59;48.72;98317.50;5119652;28;19924;-62
2022/07/06 06:14:26;;;;;;;;;;;;;;;26.03;48.11;98312.75;5118422;28;19928;-62
2022/07/06 06:16:53;;;;;;;;;;;;;;;26.06;47.87;98320.25;5119567;28;19979;-63
2022/07/06 06:19:19;;;;;;;;;;;;;;;25.72;47.96;98329.97;5121827;28;19926;-62
2022/07/06 06:21:45;;;;;;;;;;;;;;;25.89;48.38;98319.81;5133077;27;19924;-62
2022/07/06 06:24:12;;;;;;;;;;;;;;;26.14;47.96;98326.69;5118456;28;20012;-63
2022/07/06 06:26:39;;;;;;;;;;;;;;;26.57;47.43;98329.31;5118297;28;19974;-63
2022/07/06 06:29:06;;;;;;;;;;;;;;;26.86;46.81;98327.22;5121433;28;19924;-61
2022/07/06 06:31:32;;;;;;;;;;;;;;;26.88;46.66;98324.91;5121439;28;19951;-61
2022/07/06 06:33:58;;;;;;;;;;;;;;;26.97;46.38;98331.75;5119645;28;19931;-64
2022/07/06 06:36:25;;;;;;;;;;;;;;;26.70;46.46;98328.03;5118153;28;20443;-64
2022/07/06 06:38:51;;;;;;;;;;;;;;;26.19;47.13;98320.97;5119317;28;19924;-63
2022/07/06 06:41:20;;;;;;;;;;;;;;;25.98;47.82;98329.44;5120988;28;19935;-62
2022/07/06 06:43:48;;;;;;;;;;;;;;;26.11;47.67;98328.22;5121374;28;19924;-63
2022/07/06 06:46:14;;;;;;;;;;;;;;;26.62;47.72;98323.53;5118065;28;19925;-63
2022/07/06 06:48:40;;;;;;;;;;;;;;;27.07;47.08;98328.44;5118301;28;19984;-61
2022/07/06 06:51:07;;;;;;;;;;;;;;;27.38;46.54;98322.00;5132771;28;19924;-63
2022/07/06 06:53:33;;;;;;;;;;;;;;;27.61;46.33;98324.78;5121955;28;19924;-65
2022/07/06 06:56:00;;;;;;;;;;;;;;;27.60;46.18;98324.03;5119344;28;20035;-62
2022/07/06 06:58:26;;;;;;;;;;;;;;;27.73;46.15;98332.88;5117900;28;19924;-62
2022/07/06 07:00:54;;;;;;;;;;;;;;;27.70;45.86;98320.66;5119194;28;19920;-62
2022/07/06 07:03:21;;;;;;;;;;;;;;;27.68;45.88;98317.50;5121605;28;19954;-63
2022/07/06 07:05:48;;;;;;;;;;;;;;;27.63;46.19;98325.25;5120802;28;19923;-62
2022/07/06 07:08:14;;;;;;;;;;;;;;;27.71;46.32;98329.69;5117791;28;19924;-63
2022/07/06 07:10:41;;;;;;;;;;;;;;;27.85;45.83;98325.22;5117972;28;20000;-62
2022/07/06 07:13:07;;;;;;;;;;;;;;;27.87;45.86;98322.94;5121101;28;20183;-62
2022/07/06 07:15:33;;;;;;;;;;;;;;;28.01;45.95;98327.06;5121464;28;19935;-62
2022/07/06 07:18:01;;;;;;;;;;;;;;;27.99;45.47;98321.13;5101218;28;20000;-63
2022/07/06 07:20:29;;;;;;;;;;;;;;;27.75;46.25;98328.59;5124556;28;19931;-62
2022/07/06 07:22:56;;;;;;;;;;;;;;;27.07;47.03;98333.13;5123240;28;19962;-62
2022/07/06 07:25:22;;;;;;;;;;;;;;;26.78;47.30;98332.50;5121217;28;19924;-63
2022/07/06 07:27:48;;;;;;;;;;;;;;;27.19;47.57;98328.31;5102691;28;19919;-63
2022/07/06 07:30:15;;;;;;;;;;;;;;;27.74;47.03;98324.25;5117526;28;19959;-62
2022/07/06 07:32:41;;;;;;;;;;;;;;;27.98;46.67;98325.84;5117626;28;19920;-63
2022/07/06 07:35:09;;;;;;;;;;;;;;;28.07;46.57;98323.66;5121032;28;19932;-63
2022/07/06 07:37:35;;;;;;;;;;;;;;;28.28;46.21;98324.03;5121160;28;19974;-63
2022/07/06 07:40:02;;;;;;;;;;;;;;;28.48;45.94;98321.94;5118540;28;19977;-63
2022/07/06 07:42:28;;;;;;;;;;;;;;;28.34;44.92;98321.75;5117455;28;19928;-63
2022/07/06 07:44:54;;;;;;;;;;;;;;;28.08;45.66;98322.50;5118757;28;19988;-63
2022/07/06 07:47:21;;;;;;;;;;;;;;;28.21;45.44;98323.91;5121000;28;19954;-64
2022/07/06 07:49:47;;;;;;;;;;;;;;;28.24;46.17;98322.38;5120534;28;19939;-62
2022/07/06 07:52:15;;;;;;;;;;;;;;;28.55;45.85;98324.81;5130156;28;19958;-62
2022/07/06 07:54:41;;;;;;;;;;;;;;;28.77;45.36;98323.16;5121136;28;19924;-62
2022/07/06 07:57:08;;;;;;;;;;;;;;;28.70;44.95;98326.59;5124500;28;19923;-63
2022/07/06 07:59:35;;;;;;;;;;;;;;;27.74;46.14;98331.69;5124642;28;19927;-62
2022/07/06 08:02:02;;;;;;;;;;;;;;;27.56;46.55;98333.34;5121850;28;19924;-62
2022/07/06 08:04:28;;;;;;;;;;;;;;;27.31;46.39;98328.16;5120839;28;19971;-62
2022/07/06 08:06:54;;;;;;;;;;;;;;;27.73;46.33;98336.38;5121997;28;19924;-63
2022/07/06 08:09:22;;;;;;;;;;;;;;;27.89;45.74;98334.31;5106394;28;19927;-62
2022/07/06 08:11:48;;;;;;;;;;;;;;;28.44;45.56;98334.84;5123685;28;19945;-63
2022/07/06 08:14:16;;;;;;;;;;;;;;;28.37;45.42;98332.00;5120780;28;19967;-62
2022/07/06 08:16:43;;;;;;;;;;;;;;;28.89;44.37;98329.22;5120928;28;19927;-62
2022/07/06 08:19:09;;;;;;;;;;;;;;;28.99;44.02;98333.28;5120707;28;19999;-62
2022/07/06 08:21:35;;;;;;;;;;;;;;;28.78;43.93;98327.50;5133646;27;19923;-61
2022/07/06 08:24:02;;;;;;;;;;;;;;;28.59;44.33;98325.66;5121590;28;19928;-62
2022/07/06 08:26:30;;;;;;;;;;;;;;;28.22;43.35;98328.25;5120565;28;19928;-63
2022/07/06 08:28:56;;;;;;;;;;;;;;;27.60;44.46;98325.97;5122233;28;19924;-63
2022/07/06 08:31:23;;;;;;;;;;;;;;;27.31;44.87;98333.63;5123983;28;19923;-62
2022/07/06 08:33:52;;;;;;;;;;;;;;;27.43;44.89;98329.97;5123384;28;19924;-63
2022/07/06 08:36:18;;;;;;;;;;;;;;;27.28;44.50;98333.56;5120240;28;19928;-62
2022/07/06 08:38:44;;;;;;;;;;;;;;;27.68;43.62;98333.16;5120218;28;19955;-62
2022/07/06 08:41:11;;;;;;;;;;;;;;;27.43;44.24;98332.69;5123698;28;19991;-63
2022/07/06 08:43:38;;;;;;;;;;;;;;;26.86;44.28;98329.97;5123591;28;20152;-64
2022/07/06 08:46:05;;;;;;;;;;;;;;;26.77;43.45;98330.91;5120588;28;19939;-63
2022/07/06 08:48:34;;;;;;;;;;;;;;;27.79;44.61;98332.19;5119886;28;19932;-62
2022/07/06 08:51:01;;;;;;;;;;;;;;;27.19;43.87;98336.53;5133916;27;19962;-63
2022/07/06 08:53:27;;;;;;;;;;;;;;;28.05;42.60;98327.94;5123435;28;19920;-64
2022/07/06 08:55:54;;;;;;;;;;;;;;;28.05;43.68;98322.44;5122025;28;19981;-62
2022/07/06 08:58:20;;;;;;;;;;;;;;;27.83;44.07;98327.56;5120040;28;19995;-62
2022/07/06 09:00:48;;;;;;;;;;;;;;;27.93;44.08;98330.84;5120080;28;19927;-62
2022/07/06 09:03:14;;;;;;;;;;;;;;;28.47;43.35;98323.13;5122783;28;19951;-62
2022/07/06 09:05:41;;;;;;;;;;;;;;;28.80;42.99;98328.72;5123471;28;19935;-62
2022/07/06 09:08:08;;;;;;;;;;;;;;;29.13;42.51;98321.66;5120311;28;19945;-63
2022/07/06 09:10:34;;;;;;;;;;;;;;;29.01;41.70;98324.63;5120021;28;19924;-62
2022/07/06 09:13:04;;;;;;;;;;;;;;;28.87;42.65;98326.03;5122182;28;20316;-62
2022/07/06 09:15:31;;;;;;;;;;;;;;;28.63;42.09;98326.47;5123246;28;19930;-67
2022/07/06 09:17:58;;;;;;;;;;;;;;;28.10;43.17;98327.66;5121496;28;19924;-62
2022/07/06 09:20:27;;;;;;;;;;;;;;;28.02;41.89;98331.38;5125617;27;20285;-62
2022/07/06 09:22:57;;;;;;;;;;;;;;;28.51;42.48;98323.94;5125147;27;19924;-63
2022/07/06 09:25:24;;;;;;;;;;;;;;;28.08;41.04;98329.94;5123042;28;19935;-62
2022/07/06 09:27:54;;;;;;;;;;;;;;;28.32;42.09;98326.78;5122048;28;20585;-63
2022/07/06 09:30:21;;;;;;;;;;;;;;;28.96;41.69;98323.03;5119563;28;19946;-63
2022/07/06 09:32:48;;;;;;;;;;;;;;;28.28;41.65;98325.97;5119985;28;19924;-62
2022/07/06 09:35:21;;;;;;;;;;;;;;;29.03;41.84;98312.09;5122952;28;19924;-63
2022/07/06 09:37:48;;;;;;;;;;;;;;;28.69;40.78;98314.03;5122477;28;20008;-66
2022/07/06 09:40:17;;;;;;;;;;;;;;;28.54;40.39;98309.47;5119350;28;19924;-64
2022/07/06 09:42:44;;;;;;;;;;;;;;;28.49;40.82;98307.03;5119286;28;19927;-62
2022/07/06 09:45:10;;;;;;;;;;;;;;;28.87;42.02;98326.03;5110828;28;19924;-63
2022/07/06 09:47:37;;;;;;;;;;;;;;;29.04;41.72;98329.38;5110879;28;19928;-63
2022/07/06 09:50:05;;;;;;;;;;;;;;;29.15;41.67;98317.38;5110739;27;20085;-62
2022/07/06 09:52:36;;;;;;;;;;;;;;;28.90;41.49;98324.53;5129747;27;19931;-62
2022/07/06 09:55:06;;;;;;;;;;;;;;;28.82;41.75;98318.13;5121579;28;20000;-64
2022/07/06 09:57:32;;;;;;;;;;;;;;;28.14;40.14;98321.03;5122580;28;19923;-62
2022/07/06 09:59:59;;;;;;;;;;;;;;;28.20;42.32;98321.50;5102263;28;20099;-62
2022/07/06 10:02:26;;;;;;;;;;;;;;;28.62;41.35;98321.34;5118945;28;19924;-62
2022/07/06 10:04:55;;;;;;;;;;;;;;;28.93;40.94;98319.06;5119951;28;19942;-63
2022/07/06 10:07:23;;;;;;;;;;;;;;;29.35;40.39;98318.81;5122124;28;19963;-62
2022/07/06 10:09:52;;;;;;;;;;;;;;;29.32;40.14;98316.81;5121609;28;19934;-62
2022/07/06 10:12:19;;;;;;;;;;;;;;;29.53;39.89;98305.22;5118714;28;19924;-62
2022/07/06 10:14:46;;;;;;;;;;;;;;;29.39;39.88;98322.38;5118519;28;19924;-63
2022/07/06 10:17:13;;;;;;;;;;;;;;;29.33;39.16;98323.09;5121588;28;19984;-62
2022/07/06 10:19:40;;;;;;;;;;;;;;;29.38;39.78;98322.75;5122026;28;19927;-62
2022/07/06 10:22:07;;;;;;;;;;;;;;;29.49;39.23;98318.16;5130409;27;19988;-63
2022/07/06 10:24:39;;;;;;;;;;;;;;;29.55;38.98;98316.66;5118196;28;19924;-62
2022/07/06 10:27:08;;;;;;;;;;;;;;;29.57;38.61;98311.56;5121373;28;19939;-62
2022/07/06 10:29:34;;;;;;;;;;;;;;;29.53;38.89;98316.22;5121936;28;19951;-62
2022/07/06 10:32:01;;;;;;;;;;;;;;;29.46;38.58;98314.19;5119569;28;19924;-63
2022/07/06 10:34:28;;;;;;;;;;;;;;;29.51;37.68;98312.28;5118400;28;19920;-63
2022/07/06 10:36:54;;;;;;;;;;;;;;;29.57;37.52;98306.06;5119556;28;20010;-63
2022/07/06 10:42:31;;;;;;;;;;;;;;;29.29;38.33;98319.50;5118408;28;19924;-63
2022/07/06 10:44:59;;;;;;;;;;;;;;;29.56;37.93;98312.72;5119074;28;19988;-63
2022/07/06 10:47:28;;;;;;;;;;;;;;;29.67;37.88;98312.84;5121746;28;19931;-62
2022/07/06 10:49:59;;;;;;;;;;;;;;;29.72;37.56;98306.97;5120208;28;19978;-63
2022/07/06 10:52:48;;;;;;;;;;;;;;;29.19;36.67;98311.88;5129738;27;19992;-62
2022/07/06 10:55:28;;;;;;;;;;;;;;;28.98;38.35;98308.88;5117922;28;19981;-62
2022/07/06 10:57:54;;;;;;;;;;;;;;;29.29;38.31;98311.25;5119454;28;19932;-62
2022/07/06 11:00:22;;;;;;;;;;;;;;;29.54;37.34;98309.56;5121630;28;19924;-63
2022/07/06 11:02:48;;;;;;;;;;;;;;;29.20;36.99;98310.72;5120895;28;19924;-63
2022/07/06 11:05:40;;;;;;;;;;;;;;;29.31;37.18;98319.91;5118233;28;19924;-63
2022/07/06 11:08:09;;;;;;;;;;;;;;;29.33;37.46;98317.59;5121472;28;19923;-62
2022/07/06 11:10:46;;;;;;;;;;;;;;;29.13;36.02;98316.94;5121934;28;19987;-63
2022/07/06 11:13:25;;;;;;;;;;;;;;;29.42;37.70;98313.38;5109885;28;19978;-63
2022/07/06 11:16:01;;;;;;;;;;;;;;;29.85;37.30;98309.09;5109758;28;20428;-64
2022/07/06 11:18:27;;;;;;;;;;;;;;;29.87;36.99;98312.25;5109756;28;19978;-62
2022/07/06 11:21:08;;;;;;;;;;;;;;;29.89;37.06;98304.44;5122523;27;19934;-62
2022/07/06 11:23:35;;;;;;;;;;;;;;;29.76;37.21;98311.34;5122052;28;19936;-63
2022/07/06 11:26:01;;;;;;;;;;;;;;;29.79;36.92;98316.09;5119175;28;19924;-63
2022/07/06 11:28:28;;;;;;;;;;;;;;;29.88;36.73;98300.09;5121160;28;19924;-62
2022/07/06 11:30:56;;;;;;;;;;;;;;;29.85;36.48;98303.59;5123094;28;19924;-63
2022/07/06 11:33:28;;;;;;;;;;;;;;;29.64;36.96;98311.63;5125165;28;19924;-63
2022/07/06 11:36:11;;;;;;;;;;;;;;;29.54;35.62;98303.25;5105611;28;19920;-63
2022/07/06 11:38:37;;;;;;;;;;;;;;;29.50;37.71;98297.72;5121641;28;19967;-62
2022/07/06 11:41:04;;;;;;;;;;;;;;;29.77;37.74;98312.91;5124394;28;19924;-64
2022/07/06 11:43:30;;;;;;;;;;;;;;;29.84;36.27;98309.47;5125020;28;19970;-63
2022/07/06 11:45:58;;;;;;;;;;;;;;;29.83;37.26;98311.44;5123388;28;19946;-63
2022/07/06 11:48:24;;;;;;;;;;;;;;;29.84;37.23;98299.25;5121596;28;19960;-64
2022/07/06 11:50:58;;;;;;;;;;;;;;;29.57;35.82;98308.81;5133962;27;19927;-62
2022/07/06 11:53:24;;;;;;;;;;;;;;;29.68;36.40;98295.91;5125029;28;19924;-63
2022/07/06 11:55:50;;;;;;;;;;;;;;;29.91;36.11;98301.28;5123922;28;19973;-64
2022/07/06 11:58:19;;;;;;;;;;;;;;;29.74;36.61;98296.38;5121333;28;19924;-63
2022/07/06 12:00:46;;;;;;;;;;;;;;;29.71;36.08;98305.41;5121162;28;19924;-62
2022/07/06 12:03:16;;;;;;;;;;;;;;;29.65;35.60;98293.94;5124759;28;19923;-63
2022/07/06 12:05:42;;;;;;;;;;;;;;;29.78;36.31;98292.47;5124512;28;19924;-63
2022/07/06 12:08:09;;;;;;;;;;;;;;;29.70;37.29;98288.09;5120933;28;19935;-63
2022/07/06 12:10:37;;;;;;;;;;;;;;;29.79;36.64;98274.81;5120878;28;19920;-62
2022/07/06 12:13:04;;;;;;;;;;;;;;;29.53;35.99;98285.94;5123474;28;19933;-63
2022/07/06 12:15:30;;;;;;;;;;;;;;;29.64;36.45;98286.06;5124034;28;19932;-63
2022/07/06 12:17:57;;;;;;;;;;;;;;;29.68;35.65;98284.16;5122383;28;19935;-63
2022/07/06 12:20:25;;;;;;;;;;;;;;;29.67;36.07;98277.84;5126179;27;19927;-62
2022/07/06 12:23:01;;;;;;;;;;;;;;;29.74;36.43;98280.63;5126686;27;19924;-63
2022/07/06 12:25:31;;;;;;;;;;;;;;;29.72;35.95;98290.44;5124052;28;19956;-62
2022/07/06 12:27:57;;;;;;;;;;;;;;;29.58;36.04;98290.34;5122269;28;20545;-62
2022/07/06 12:30:24;;;;;;;;;;;;;;;29.68;35.98;98281.38;5120541;28;19931;-64
2022/07/06 12:33:05;;;;;;;;;;;;;;;29.73;36.29;98284.59;5121193;28;19953;-62
2022/07/06 12:35:33;;;;;;;;;;;;;;;29.66;35.59;98284.50;5124331;27;19928;-64
2022/07/06 12:38:00;;;;;;;;;;;;;;;29.59;36.29;98281.69;5121491;28;19970;-63
2022/07/06 12:40:27;;;;;;;;;;;;;;;29.66;35.56;98279.00;5119793;28;19987;-62
2022/07/06 12:42:53;;;;;;;;;;;;;;;29.60;35.32;98280.53;5121277;28;19924;-63
2022/07/06 12:45:20;;;;;;;;;;;;;;;29.63;34.98;98273.47;5123662;28;19924;-63
2022/07/06 12:47:58;;;;;;;;;;;;;;;29.48;36.04;98267.03;5123427;28;19924;-64
2022/07/06 12:50:31;;;;;;;;;;;;;;;29.36;37.59;98270.06;5126037;27;19933;-63
2022/07/06 12:52:58;;;;;;;;;;;;;;;29.40;35.87;98268.16;5125303;27;19920;-62
2022/07/06 12:55:26;;;;;;;;;;;;;;;29.36;35.05;98270.88;5123623;28;19924;-62
2022/07/06 12:57:53;;;;;;;;;;;;;;;29.35;36.38;98262.97;5122420;28;19924;-63